Time,TemperatureF,DewpointF,PressureIn,WindDirection,WindDirectionDegrees,WindSpeedMPH,WindSpeedGustMPH,Humidity,HourlyPrecipIn,Conditions,Clouds,dailyrainin,SoftwareType,DateUTC
2013-10-11 00:13:00,52.0,50.0,30.11,ENE,69,0.0,-999.0,92,-99.99,,,-99.99,,2013-10-11 04:13:00,
2013-10-11 00:24:00,51.0,49.0,30.11,ENE,69,0.0,-999.0,92,-99.99,,,-99.99,,2013-10-11 04:24:00,
2013-10-11 00:44:00,51.0,49.0,30.11,ENE,69,0.0,-999.0,92,-99.99,,,-99.99,,2013-10-11 04:44:00,
2013-10-11 00:53:00,51.0,49.0,30.10,ENE,69,0.0,-999.0,92,-99.99,,,-99.99,,2013-10-11 04:53:00,
2013-10-11 01:13:00,50.0,48.0,30.10,ENE,69,0.0,-999.0,92,-99.99,,,-99.99,,2013-10-11 05:13:00,
2013-10-11 01:23:00,50.0,48.0,30.10,ENE,69,0.0,-999.0,93,-99.99,,,-99.99,,2013-10-11 05:23:00,
2013-10-11 01:43:00,50.0,48.0,30.10,ENE,69,0.0,-999.0,93,-99.99,,,-99.99,,2013-10-11 05:43:00,
2013-10-11 01:52:00,50.0,48.0,30.10,ENE,69,0.0,-999.0,93,-99.99,,,-99.99,,2013-10-11 05:52:00,
2013-10-11 02:12:00,49.0,47.0,30.10,ENE,69,0.0,-999.0,93,-99.99,,,-99.99,,2013-10-11 06:12:00,
2013-10-11 02:22:00,49.0,47.0,30.10,ENE,69,0.0,-999.0,93,-99.99,,,-99.99,,2013-10-11 06:22:00,
2013-10-11 02:43:00,49.0,47.0,30.10,ENE,69,0.0,-999.0,93,-99.99,,,-99.99,,2013-10-11 06:43:00,
2013-10-11 02:52:00,49.0,47.0,30.10,ENE,69,0.0,-999.0,93,-99.99,,,-99.99,,2013-10-11 06:52:00,
2013-10-11 03:11:00,48.0,46.0,30.10,ENE,69,0.0,-999.0,93,-99.99,,,-99.99,,2013-10-11 07:11:00,
2013-10-11 03:22:00,48.0,46.0,30.10,ENE,69,0.0,-999.0,93,-99.99,,,-99.99,,2013-10-11 07:22:00,
2013-10-11 03:42:00,48.0,46.0,30.09,ENE,69,0.0,-999.0,93,-99.99,,,-99.99,,2013-10-11 07:42:00,
2013-10-11 03:52:00,48.0,46.0,30.09,ENE,69,0.0,-999.0,93,-99.99,,,-99.99,,2013-10-11 07:52:00,
2013-10-11 04:12:00,47.0,45.0,30.09,ENE,69,0.0,-999.0,94,-99.99,,,-99.99,,2013-10-11 08:12:00,
2013-10-11 04:22:00,47.0,45.0,30.09,ENE,69,0.0,-999.0,93,-99.99,,,-99.99,,2013-10-11 08:22:00,
2013-10-11 04:32:00,47.0,45.0,30.09,ENE,69,0.0,-999.0,93,-99.99,,,-99.99,,2013-10-11 08:32:00,
2013-10-11 04:42:00,47.0,45.0,30.09,ENE,69,0.0,-999.0,93,-99.99,,,-99.99,,2013-10-11 08:42:00,
2013-10-11 04:52:00,46.0,44.0,30.09,ENE,69,0.0,-999.0,94,-99.99,,,-99.99,,2013-10-11 08:52:00,
2013-10-11 05:12:00,46.0,44.0,30.09,ENE,69,0.0,-999.0,94,-99.99,,,-99.99,,2013-10-11 09:12:00,
2013-10-11 05:22:00,46.0,44.0,30.09,ENE,69,0.0,-999.0,94,-99.99,,,-99.99,,2013-10-11 09:22:00,
2013-10-11 05:43:00,46.0,44.0,30.09,ENE,69,0.0,-999.0,94,-99.99,,,-99.99,,2013-10-11 09:43:00,
2013-10-11 05:54:00,46.0,44.0,30.10,ENE,69,0.0,-999.0,94,-99.99,,,-99.99,,2013-10-11 09:54:00,
2013-10-11 06:12:00,46.0,44.0,30.10,ENE,69,0.0,-999.0,94,-99.99,,,-99.99,,2013-10-11 10:12:00,
2013-10-11 06:23:00,46.0,44.0,30.10,ENE,69,0.0,-999.0,94,-99.99,,,-99.99,,2013-10-11 10:23:00,
2013-10-11 06:53:00,45.0,43.0,30.10,ENE,69,0.0,-999.0,94,-99.99,,,-99.99,,2013-10-11 10:53:00,
2013-10-11 07:12:00,45.0,43.0,30.11,ENE,69,0.0,-999.0,94,-99.99,,,-99.99,,2013-10-11 11:12:00,
2013-10-11 07:22:00,45.0,43.0,30.11,ENE,69,0.0,-999.0,94,-99.99,,,-99.99,,2013-10-11 11:22:00,
2013-10-11 07:52:00,45.0,43.0,30.12,ENE,69,0.0,-999.0,94,-99.99,,,-99.99,,2013-10-11 11:52:00,
2013-10-11 08:11:00,44.0,42.0,30.12,ENE,69,0.0,-999.0,94,-99.99,,,-99.99,,2013-10-11 12:11:00,
2013-10-11 08:22:00,44.0,42.0,30.12,ENE,69,0.0,-999.0,94,-99.99,,,-99.99,,2013-10-11 12:22:00,
2013-10-11 08:42:00,44.0,42.0,30.12,ENE,69,0.0,-999.0,94,-99.99,,,-99.99,,2013-10-11 12:42:00,
2013-10-11 08:52:00,45.0,44.0,30.13,ENE,69,0.0,-999.0,95,-99.99,,,-99.99,,2013-10-11 12:52:00,
2013-10-11 09:12:00,47.0,46.0,30.13,ENE,69,0.0,-999.0,95,-99.99,,,-99.99,,2013-10-11 13:12:00,
2013-10-11 09:22:00,50.0,49.0,30.14,ENE,65,0.0,-999.0,96,-99.99,,,-99.99,,2013-10-11 13:22:00,
2013-10-11 09:43:00,51.0,50.0,30.14,ENE,65,0.0,-999.0,96,-99.99,,,-99.99,,2013-10-11 13:43:00,
2013-10-11 09:53:00,54.0,53.0,30.14,ENE,65,0.0,-999.0,96,-99.99,,,-99.99,,2013-10-11 13:53:00,
2013-10-11 10:11:00,55.0,53.0,30.14,ENE,65,0.0,-999.0,94,-99.99,,,-99.99,,2013-10-11 14:11:00,
2013-10-11 10:22:00,56.0,52.0,30.14,ENE,65,0.0,-999.0,88,-99.99,,,-99.99,,2013-10-11 14:22:00,
2013-10-11 10:52:00,60.0,54.0,30.14,ENE,65,0.0,-999.0,80,-99.99,,,-99.99,,2013-10-11 14:52:00,
2013-10-11 11:22:00,65.0,54.0,30.13,WSW,245,0.0,-999.0,68,-99.99,,,-99.99,,2013-10-11 15:22:00,
2013-10-11 11:44:00,65.0,54.0,30.14,WSW,245,0.0,-999.0,68,-99.99,,,-99.99,,2013-10-11 15:44:00,
2013-10-11 11:54:00,69.0,54.0,30.13,WSW,245,0.0,-999.0,59,-99.99,,,-99.99,,2013-10-11 15:54:00,
2013-10-11 12:13:00,69.0,53.0,30.13,WSW,245,1.0,-999.0,57,-99.99,,,-99.99,,2013-10-11 16:13:00,
2013-10-11 12:22:00,70.0,53.0,30.13,NNE,28,2.0,-999.0,54,-99.99,,,-99.99,,2013-10-11 16:22:00,
2013-10-11 12:43:00,71.0,54.0,30.12,NNE,29,2.0,-999.0,54,-99.99,,,-99.99,,2013-10-11 16:43:00,
2013-10-11 12:53:00,72.0,52.0,30.12,NW,317,1.0,-999.0,49,-99.99,,,-99.99,,2013-10-11 16:53:00,
2013-10-11 13:12:00,72.0,52.0,30.11,NW,323,3.0,-999.0,49,-99.99,,,-99.99,,2013-10-11 17:12:00,
2013-10-11 13:22:00,73.0,52.0,30.11,NW,314,5.0,-999.0,48,-99.99,,,-99.99,,2013-10-11 17:22:00,
2013-10-11 13:43:00,73.0,52.0,30.11,NW,313,4.0,-999.0,47,-99.99,,,-99.99,,2013-10-11 17:43:00,
2013-10-11 13:53:00,75.0,53.0,30.10,East,92,1.0,-999.0,47,-99.99,,,-99.99,,2013-10-11 17:53:00,
2013-10-11 14:12:00,75.0,53.0,30.09,ENE,57,3.0,-999.0,47,-99.99,,,-99.99,,2013-10-11 18:12:00,
2013-10-11 14:22:00,75.0,54.0,30.09,NW,312,3.0,-999.0,48,-99.99,,,-99.99,,2013-10-11 18:22:00,
2013-10-11 14:43:00,75.0,55.0,30.08,NNW,340,4.0,-999.0,49,-99.99,,,-99.99,,2013-10-11 18:43:00,
2013-10-11 14:53:00,76.0,56.0,30.07,NW,325,1.0,-999.0,50,-99.99,,,-99.99,,2013-10-11 18:53:00,
2013-10-11 15:11:00,76.0,55.0,30.06,NW,318,4.0,-999.0,49,-99.99,,,-99.99,,2013-10-11 19:11:00,
2013-10-11 15:22:00,76.0,56.0,30.06,NNW,328,2.0,-999.0,50,-99.99,,,-99.99,,2013-10-11 19:22:00,
2013-10-11 15:42:00,76.0,55.0,30.06,WNW,300,2.0,-999.0,49,-99.99,,,-99.99,,2013-10-11 19:42:00,
2013-10-11 15:52:00,77.0,55.0,30.05,NNE,23,3.0,-999.0,47,-99.99,,,-99.99,,2013-10-11 19:52:00,
2013-10-11 16:12:00,77.0,54.0,30.05,NNW,340,2.0,-999.0,45,-99.99,,,-99.99,,2013-10-11 20:12:00,
2013-10-11 16:22:00,77.0,54.0,30.05,NW,317,2.0,-999.0,45,-99.99,,,-99.99,,2013-10-11 20:22:00,
2013-10-11 16:53:00,78.0,56.0,30.05,NNW,327,2.0,-999.0,46,-99.99,,,-99.99,,2013-10-11 20:53:00,
2013-10-11 17:22:00,77.0,55.0,30.05,NNW,332,4.0,-999.0,46,-99.99,,,-99.99,,2013-10-11 21:22:00,
2013-10-11 17:55:00,77.0,55.0,30.04,NNW,337,3.0,-999.0,47,-99.99,,,-99.99,,2013-10-11 21:55:00,
2013-10-11 18:24:00,77.0,56.0,30.05,NNW,333,2.0,-999.0,48,-99.99,,,-99.99,,2013-10-11 22:24:00,
2013-10-11 18:43:00,77.0,56.0,30.05,North,350,1.0,-999.0,48,-99.99,,,-99.99,,2013-10-11 22:43:00,
2013-10-11 18:54:00,76.0,57.0,30.05,NW,321,0.0,-999.0,51,-99.99,,,-99.99,,2013-10-11 22:54:00,
2013-10-11 19:22:00,72.0,57.0,30.05,NW,321,0.0,-999.0,60,-99.99,,,-99.99,,2013-10-11 23:22:00,
2013-10-11 21:11:00,61.0,55.0,30.06,NW,321,0.0,-999.0,82,-99.99,,,-99.99,,2013-10-12 01:11:00,
2013-10-11 21:22:00,60.0,55.0,30.06,NW,321,0.0,-999.0,83,-99.99,,,-99.99,,2013-10-12 01:22:00,
2013-10-11 21:42:00,60.0,55.0,30.06,NW,321,0.0,-999.0,83,-99.99,,,-99.99,,2013-10-12 01:42:00,
2013-10-11 21:52:00,59.0,55.0,30.07,NW,321,0.0,-999.0,86,-99.99,,,-99.99,,2013-10-12 01:52:00,
2013-10-11 22:12:00,58.0,54.0,30.06,NW,321,0.0,-999.0,87,-99.99,,,-99.99,,2013-10-12 02:12:00,
2013-10-11 22:23:00,57.0,53.0,30.06,NW,321,0.0,-999.0,88,-99.99,,,-99.99,,2013-10-12 02:23:00,
2013-10-11 22:52:00,57.0,54.0,30.06,NW,321,0.0,-999.0,90,-99.99,,,-99.99,,2013-10-12 02:52:00,
2013-10-11 23:23:00,56.0,53.0,30.06,NW,321,0.0,-999.0,91,-99.99,,,-99.99,,2013-10-12 03:23:00,
2013-10-11 23:44:00,56.0,53.0,30.06,NW,321,0.0,-999.0,91,-99.99,,,-99.99,,2013-10-12 03:44:00,
2013-10-11 23:54:00,55.0,53.0,30.06,NW,321,0.0,-999.0,92,-99.99,,,-99.99,,2013-10-12 03:54:00,